createdAt,value
2022-12-18T00:02:10.191Z,-4.13
2022-12-18T00:05:26.659Z,-4.26
2022-12-18T00:08:43.042Z,-4.16
2022-12-18T00:11:59.183Z,-4.26
2022-12-18T00:15:17.289Z,-4.10
2022-12-18T00:18:33.436Z,-4.24
2022-12-18T00:21:50.461Z,-4.15
2022-12-18T00:25:06.611Z,-4.20
2022-12-18T00:28:22.741Z,-4.19
2022-12-18T00:31:39.610Z,-4.23
2022-12-18T00:34:55.988Z,-4.23
2022-12-18T00:38:13.459Z,-4.19
2022-12-18T00:41:44.450Z,-4.16
2022-12-18T00:45:00.628Z,-4.15
2022-12-18T00:48:17.074Z,-4.20
2022-12-18T00:51:33.682Z,-4.11
2022-12-18T00:54:50.997Z,-4.10
2022-12-18T00:58:07.228Z,-4.13
2022-12-18T01:01:25.109Z,-4.16
2022-12-18T01:04:43.483Z,-4.02
2022-12-18T01:08:00.340Z,-4.08
2022-12-18T01:11:21.482Z,-3.99
2022-12-18T01:14:38.040Z,-4.02
2022-12-18T01:17:54.300Z,-4.06
2022-12-18T01:21:14.808Z,-4.02
2022-12-18T01:24:28.570Z,-3.97
2022-12-18T01:27:45.340Z,-4.15
2022-12-18T01:31:02.855Z,-4.12
2022-12-18T01:34:19.723Z,-4.13
2022-12-18T01:37:36.155Z,-4.14
2022-12-18T01:40:52.253Z,-4.07
2022-12-18T01:44:23.754Z,-3.99
2022-12-18T01:47:46.223Z,-4.15
2022-12-18T01:51:03.525Z,-4.11
2022-12-18T01:54:20.136Z,-4.17
2022-12-18T01:57:37.537Z,-4.13
2022-12-18T02:00:54.298Z,-4.03
2022-12-18T02:04:31.924Z,-3.94
2022-12-18T02:07:58.292Z,-4.09
2022-12-18T02:11:20.374Z,-3.98
2022-12-18T02:14:41.367Z,-4.19
2022-12-18T02:18:03.351Z,-4.14
2022-12-18T02:21:27.344Z,-4.13
2022-12-18T02:24:48.826Z,-4.04
2022-12-18T02:28:09.303Z,-4.01
2022-12-18T02:31:31.312Z,-4.03
2022-12-18T02:34:49.804Z,-3.93
2022-12-18T02:38:09.056Z,-3.90
2022-12-18T02:41:27.525Z,-3.94
2022-12-18T02:44:51.053Z,-3.96
2022-12-18T02:48:09.654Z,-4.10
2022-12-18T02:51:31.037Z,-4.08
2022-12-18T02:55:07.054Z,-4.06
2022-12-18T02:58:27.640Z,-4.06
2022-12-18T03:01:49.895Z,-4.03
2022-12-18T03:05:12.440Z,-4.07
2022-12-18T03:08:33.697Z,-4.05
2022-12-18T03:12:09.467Z,-3.99
2022-12-18T03:15:31.002Z,-3.99
2022-12-18T03:18:53.349Z,-3.95
2022-12-18T03:22:12.275Z,-3.99
2022-12-18T03:25:32.751Z,-3.98
2022-12-18T03:28:53.700Z,-4.06
2022-12-18T03:32:14.704Z,-4.10
2022-12-18T03:35:35.575Z,-3.98
2022-12-18T03:38:52.718Z,-3.95
2022-12-18T03:42:14.591Z,-3.92
2022-12-18T03:45:38.070Z,-3.85
2022-12-18T03:49:05.653Z,-3.97
2022-12-18T03:52:27.441Z,-3.98
2022-12-18T03:55:46.495Z,-4.04
2022-12-18T03:59:04.399Z,-3.97
2022-12-18T04:02:23.691Z,-4.03
2022-12-18T04:05:43.312Z,-4.08
2022-12-18T04:09:00.968Z,-4.06
2022-12-18T04:12:19.165Z,-4.15
2022-12-18T04:15:36.686Z,-4.33
2022-12-18T04:18:53.636Z,-4.34
2022-12-18T04:22:11.071Z,-4.48
2022-12-18T04:25:29.088Z,-4.48
2022-12-18T04:28:47.456Z,-4.59
2022-12-18T04:32:04.069Z,-4.60
2022-12-18T04:35:21.097Z,-4.57
2022-12-18T04:38:37.344Z,-4.64
2022-12-18T04:41:55.077Z,-4.76
2022-12-18T04:45:12.764Z,-4.68
2022-12-18T04:48:29.097Z,-4.70
2022-12-18T04:51:45.809Z,-4.67
2022-12-18T04:55:01.931Z,-4.78
2022-12-18T04:58:18.354Z,-4.73
2022-12-18T05:01:35.184Z,-4.77
2022-12-18T05:04:52.269Z,-4.69
2022-12-18T05:08:08.365Z,-4.67
2022-12-18T05:11:25.747Z,-4.74
2022-12-18T05:14:41.917Z,-4.72
2022-12-18T05:17:58.089Z,-4.65
2022-12-18T05:21:15.503Z,-4.74
2022-12-18T05:24:32.376Z,-4.83
2022-12-18T05:27:48.451Z,-4.71
2022-12-18T05:31:08.430Z,-4.64
2022-12-18T05:34:24.987Z,-4.68
2022-12-18T05:37:43.253Z,-4.72
2022-12-18T05:41:00.548Z,-4.61
2022-12-18T05:44:16.635Z,-4.65
2022-12-18T05:47:32.951Z,-4.69
2022-12-18T05:50:52.801Z,-4.72
2022-12-18T05:54:09.316Z,-4.68
2022-12-18T05:57:26.291Z,-4.61
2022-12-18T06:00:46.360Z,-4.49
2022-12-18T06:04:03.729Z,-4.56
2022-12-18T06:07:20.548Z,-4.59
2022-12-18T06:10:36.693Z,-4.56
2022-12-18T06:13:58.647Z,-4.41
2022-12-18T06:17:13.818Z,-4.31
2022-12-18T06:20:33.812Z,-4.36
2022-12-18T06:23:50.096Z,-4.38
2022-12-18T06:27:06.299Z,-4.38
2022-12-18T06:30:24.031Z,-4.50
2022-12-18T06:33:41.058Z,-4.62
2022-12-18T06:36:57.687Z,-4.59
2022-12-18T06:40:16.401Z,-4.64
2022-12-18T06:43:32.810Z,-4.56
2022-12-18T06:46:49.140Z,-4.58
2022-12-18T06:50:05.338Z,-4.54
2022-12-18T06:53:22.059Z,-4.49
2022-12-18T06:56:39.301Z,-4.53
2022-12-18T06:59:55.681Z,-4.56
2022-12-18T07:03:12.402Z,-4.50
2022-12-18T07:06:32.556Z,-4.64
2022-12-18T07:09:48.787Z,-4.60
2022-12-18T07:13:05.056Z,-4.56
2022-12-18T07:16:25.824Z,-4.61
2022-12-18T07:19:42.458Z,-4.58
2022-12-18T07:22:58.606Z,-4.52
2022-12-18T07:26:16.962Z,-4.57
2022-12-18T07:29:33.527Z,-4.56
2022-12-18T07:32:49.908Z,-4.41
2022-12-18T07:36:07.578Z,-4.24
2022-12-18T07:39:35.544Z,-4.18
2022-12-18T07:42:52.880Z,-4.31
2022-12-18T07:46:06.974Z,-4.13
2022-12-18T07:49:22.935Z,-4.16
2022-12-18T07:52:39.072Z,-4.18
2022-12-18T07:56:25.433Z,-4.22
2022-12-18T07:59:13.478Z,-4.16
2022-12-18T08:02:31.336Z,-4.16
2022-12-18T08:05:50.641Z,-3.95
2022-12-18T08:09:07.314Z,-3.80
2022-12-18T08:12:23.631Z,-3.73
2022-12-18T08:15:40.026Z,-3.66
2022-12-18T08:18:58.453Z,-3.61
2022-12-18T08:22:17.460Z,-3.55
2022-12-18T08:25:33.668Z,-3.61
2022-12-18T08:28:50.439Z,-3.62
2022-12-18T08:32:07.163Z,-3.79
2022-12-18T08:35:23.793Z,-3.72
2022-12-18T08:38:40.795Z,-3.77
2022-12-18T08:42:10.195Z,-3.62
2022-12-18T08:45:26.762Z,-3.48
2022-12-18T08:48:43.113Z,-3.53
2022-12-18T08:52:02.493Z,-3.45
2022-12-18T08:55:17.804Z,-3.39
2022-12-18T08:58:36.368Z,-3.28
2022-12-18T09:01:58.545Z,-3.30
2022-12-18T09:05:18.814Z,-3.34
2022-12-18T09:08:35.585Z,-3.33
2022-12-18T09:11:54.961Z,-3.22
2022-12-18T09:15:12.249Z,-3.12
2022-12-18T09:18:29.995Z,-2.96
2022-12-18T09:21:48.282Z,-3.01
2022-12-18T09:25:07.335Z,-2.95
2022-12-18T09:28:25.785Z,-2.85
2022-12-18T09:31:42.524Z,-2.75
2022-12-18T09:34:58.744Z,-2.61
2022-12-18T09:38:16.545Z,-2.53
2022-12-18T09:41:55.227Z,-2.55
2022-12-18T09:45:14.025Z,-2.39
2022-12-18T09:48:38.849Z,-2.49
2022-12-18T09:51:59.716Z,-2.57
2022-12-18T09:55:23.359Z,-2.56
2022-12-18T09:58:46.029Z,-2.57
2022-12-18T10:02:02.832Z,-2.66
2022-12-18T10:05:26.085Z,-2.74
2022-12-18T10:08:50.377Z,-2.78
2022-12-18T10:12:14.442Z,-2.80
2022-12-18T10:15:37.007Z,-2.94
2022-12-18T10:19:15.822Z,-2.79
2022-12-18T10:22:42.706Z,-2.76
2022-12-18T10:26:07.515Z,-2.66
2022-12-18T10:29:25.839Z,-2.62
2022-12-18T10:32:42.165Z,-2.51
2022-12-18T10:36:00.052Z,-2.41
2022-12-18T10:39:29.070Z,-2.31
2022-12-18T10:42:46.064Z,-2.21
2022-12-18T10:46:22.784Z,-2.38
2022-12-18T10:49:44.594Z,-2.22
2022-12-18T10:53:10.225Z,-2.31
2022-12-18T10:56:28.976Z,-2.20
2022-12-18T10:59:57.302Z,-2.25
2022-12-18T11:03:31.520Z,-2.16
2022-12-18T11:07:02.492Z,-1.91
2022-12-18T11:10:27.122Z,-2.15
2022-12-18T11:13:45.184Z,-2.22
2022-12-18T11:17:25.339Z,-2.12
2022-12-18T11:20:37.113Z,-2.30
2022-12-18T11:24:00.033Z,-2.05
2022-12-18T11:27:24.657Z,-1.91
2022-12-18T11:30:46.268Z,-2.22
2022-12-18T11:34:31.691Z,-2.39
2022-12-18T11:37:37.009Z,-2.25
2022-12-18T11:40:59.173Z,-2.26
2022-12-18T11:44:20.330Z,-2.30
2022-12-18T11:47:46.209Z,-2.31
2022-12-18T11:51:05.361Z,-2.24
2022-12-18T11:54:24.432Z,-2.19
2022-12-18T11:57:48.487Z,-2.20
2022-12-18T12:01:10.760Z,-2.21
2022-12-18T12:05:01.051Z,-2.14
2022-12-18T12:08:22.322Z,-2.18
2022-12-18T12:11:48.017Z,-2.33
2022-12-18T12:15:10.617Z,-2.45
2022-12-18T12:18:38.252Z,-2.47
2022-12-18T12:21:59.400Z,-2.37
2022-12-18T12:25:42.764Z,-2.47
2022-12-18T12:29:21.280Z,-2.40
2022-12-18T12:32:59.298Z,-2.56
2022-12-18T12:36:22.759Z,-2.66
2022-12-18T12:39:46.132Z,-2.61
2022-12-18T12:43:19.685Z,-2.68
2022-12-18T12:46:40.304Z,-2.51
2022-12-18T12:49:58.482Z,-2.49
2022-12-18T12:53:20.130Z,-2.42
2022-12-18T12:56:45.406Z,-2.37
2022-12-18T13:00:17.513Z,-2.50
2022-12-18T13:03:41.995Z,-2.69
2022-12-18T13:07:03.507Z,-2.82
2022-12-18T13:10:41.604Z,-2.79
2022-12-18T13:14:03.159Z,-2.70
2022-12-18T13:17:39.763Z,-2.75
2022-12-18T13:21:03.381Z,-2.85
2022-12-18T13:24:34.202Z,-2.86
2022-12-18T13:28:19.310Z,-2.75
2022-12-18T13:32:29.050Z,-2.70
2022-12-18T13:35:59.923Z,-2.59
2022-12-18T13:39:44.878Z,-2.55
2022-12-18T13:43:20.221Z,-2.49
2022-12-18T13:46:48.187Z,-2.51
2022-12-18T13:50:08.571Z,-2.53
2022-12-18T13:53:30.602Z,-2.63
2022-12-18T13:56:51.598Z,-2.69
2022-12-18T14:00:22.878Z,-2.79
2022-12-18T14:03:40.706Z,-2.89
2022-12-18T14:07:00.301Z,-2.95
2022-12-18T14:13:47.829Z,-3.21
2022-12-18T14:17:06.707Z,-3.22
2022-12-18T14:20:26.669Z,-3.43
2022-12-18T14:23:47.189Z,-3.52
2022-12-18T14:27:05.690Z,-3.62
2022-12-18T14:30:39.613Z,-3.76
2022-12-18T14:33:57.047Z,-3.90
2022-12-18T14:37:14.416Z,-3.95
2022-12-18T14:40:32.410Z,-3.99
2022-12-18T14:43:53.702Z,-4.11
2022-12-18T14:47:10.368Z,-4.19
2022-12-18T14:50:28.033Z,-4.20
2022-12-18T14:53:55.157Z,-4.30
2022-12-18T14:57:21.322Z,-4.35
2022-12-18T15:00:39.101Z,-4.39
2022-12-18T15:03:56.101Z,-4.47
2022-12-18T15:07:25.475Z,-4.50
2022-12-18T15:10:45.458Z,-4.56
2022-12-18T15:14:03.828Z,-4.58
2022-12-18T15:17:30.273Z,-4.60
2022-12-18T15:20:54.588Z,-4.64
2022-12-18T15:24:11.727Z,-4.69
2022-12-18T15:27:42.791Z,-4.77
2022-12-18T15:31:33.162Z,-4.82
2022-12-18T15:34:50.134Z,-4.91
2022-12-18T15:38:08.429Z,-4.92
2022-12-18T15:41:27.779Z,-5.09
2022-12-18T15:44:47.685Z,-5.51
2022-12-18T15:48:29.013Z,-5.80
2022-12-18T15:51:53.578Z,-6.13
2022-12-18T15:55:25.625Z,-6.28
2022-12-18T15:58:42.111Z,-6.64
2022-12-18T16:02:00.686Z,-6.83
2022-12-18T16:05:25.975Z,-6.51
2022-12-18T16:08:42.646Z,-6.23
2022-12-18T16:12:10.710Z,-6.08
2022-12-18T16:15:27.664Z,-5.95
2022-12-18T16:18:44.215Z,-5.88
2022-12-18T16:22:04.134Z,-5.85
2022-12-18T16:25:30.993Z,-5.80
2022-12-18T16:28:55.148Z,-5.83
2022-12-18T16:32:12.555Z,-6.26
2022-12-18T16:35:29.447Z,-6.69
2022-12-18T16:38:46.400Z,-7.23
2022-12-18T16:42:05.621Z,-7.56
2022-12-18T16:45:25.377Z,-7.67
2022-12-18T16:48:43.146Z,-7.78
2022-12-18T16:52:00.025Z,-7.71
2022-12-18T16:55:17.854Z,-8.00
2022-12-18T16:58:34.799Z,-7.65
2022-12-18T17:02:06.649Z,-7.34
2022-12-18T17:05:24.020Z,-7.34
2022-12-18T17:08:40.543Z,-7.76
2022-12-18T17:12:01.257Z,-7.98
2022-12-18T17:15:19.954Z,-8.26
2022-12-18T17:18:37.027Z,-8.41
2022-12-18T17:21:56.017Z,-8.47
2022-12-18T17:25:13.423Z,-8.56
2022-12-18T17:28:29.729Z,-8.83
2022-12-18T17:31:46.394Z,-8.89
2022-12-18T17:35:07.178Z,-8.86
2022-12-18T17:38:21.926Z,-9.22
2022-12-18T17:41:40.871Z,-9.12
2022-12-18T17:44:57.787Z,-8.72
2022-12-18T17:48:15.237Z,-9.16
2022-12-18T17:51:32.052Z,-9.10
2022-12-18T17:54:48.678Z,-8.90
2022-12-18T17:58:05.369Z,-8.98
2022-12-18T18:01:24.315Z,-8.83
2022-12-18T18:04:41.200Z,-8.95
2022-12-18T18:07:59.616Z,-8.85
2022-12-18T18:11:34.785Z,-8.56
2022-12-18T18:14:51.820Z,-8.49
2022-12-18T18:18:10.224Z,-8.85
2022-12-18T18:21:28.498Z,-9.21
2022-12-18T18:24:45.876Z,-9.32
2022-12-18T18:28:02.334Z,-9.56
2022-12-18T18:31:21.841Z,-9.75
2022-12-18T18:34:37.609Z,-9.86
2022-12-18T18:37:55.644Z,-10.06
2022-12-18T18:41:13.572Z,-10.06
2022-12-18T18:44:30.948Z,-10.13
2022-12-18T18:47:50.237Z,-10.61
2022-12-18T18:51:12.537Z,-10.67
2022-12-18T18:54:32.610Z,-10.57
2022-12-18T18:57:49.312Z,-10.59
2022-12-18T19:01:08.884Z,-10.80
2022-12-18T19:04:25.821Z,-10.93
2022-12-18T19:07:45.818Z,-10.98
2022-12-18T19:11:05.070Z,-11.16
2022-12-18T19:14:40.612Z,-11.13
2022-12-18T19:17:55.967Z,-11.19
2022-12-18T19:21:14.559Z,-11.33
2022-12-18T19:24:34.382Z,-11.39
2022-12-18T19:27:52.484Z,-11.33
2022-12-18T19:31:13.693Z,-11.43
2022-12-18T19:34:30.450Z,-11.52
2022-12-18T19:37:46.799Z,-11.56
2022-12-18T19:41:03.194Z,-11.65
2022-12-18T19:44:24.657Z,-11.79
2022-12-18T19:47:46.177Z,-11.93
2022-12-18T19:51:04.456Z,-12.13
2022-12-18T19:54:22.277Z,-12.13
2022-12-18T19:57:40.025Z,-12.17
2022-12-18T20:00:56.963Z,-12.11
2022-12-18T20:04:14.983Z,-12.09
2022-12-18T20:07:32.043Z,-12.19
2022-12-18T20:10:50.107Z,-12.17
2022-12-18T20:14:08.532Z,-12.36
2022-12-18T20:17:27.315Z,-12.38
2022-12-18T20:20:43.994Z,-12.45
2022-12-18T20:24:02.793Z,-12.45
2022-12-18T20:27:19.647Z,-12.38
2022-12-18T20:30:37.144Z,-12.37
2022-12-18T20:33:55.688Z,-12.33
2022-12-18T20:37:14.612Z,-12.42
2022-12-18T20:40:33.739Z,-12.60
2022-12-18T20:43:50.365Z,-12.39
2022-12-18T20:47:08.797Z,-12.33
2022-12-18T20:50:25.616Z,-11.65
2022-12-18T20:53:44.441Z,-10.99
2022-12-18T20:57:01.934Z,-10.57
2022-12-18T21:00:21.703Z,-10.13
2022-12-18T21:03:38.075Z,-9.78
2022-12-18T21:07:02.392Z,-9.49
2022-12-18T21:10:18.591Z,-9.32
2022-12-18T21:13:37.994Z,-9.21
2022-12-18T21:16:52.618Z,-9.14
2022-12-18T21:20:17.772Z,-8.99
2022-12-18T21:23:40.668Z,-9.49
2022-12-18T21:26:58.132Z,-9.47
2022-12-18T21:30:18.922Z,-9.57
2022-12-18T21:33:35.712Z,-9.28
2022-12-18T21:36:54.224Z,-9.33
2022-12-18T21:40:12.713Z,-9.68
2022-12-18T21:43:43.816Z,-9.75
2022-12-18T21:47:12.310Z,-9.95
2022-12-18T21:50:23.489Z,-10.39
2022-12-18T21:53:42.571Z,-10.97
2022-12-18T21:57:03.008Z,-11.54
2022-12-18T22:00:23.643Z,-12.18
2022-12-18T22:03:40.015Z,-12.71
2022-12-18T22:06:58.035Z,-12.98
2022-12-18T22:10:16.119Z,-13.13
2022-12-18T22:13:32.952Z,-13.21
2022-12-18T22:16:50.039Z,-13.42
2022-12-18T22:20:07.050Z,-13.55
2022-12-18T22:23:23.378Z,-13.38
2022-12-18T22:26:42.582Z,-13.27
2022-12-18T22:30:09.023Z,-13.27
2022-12-18T22:33:25.164Z,-13.47
2022-12-18T22:36:48.054Z,-13.55
2022-12-18T22:40:04.489Z,-13.69
2022-12-18T22:43:21.480Z,-13.64
2022-12-18T22:46:41.917Z,-13.50
2022-12-18T22:49:59.247Z,-13.36
2022-12-18T22:53:15.566Z,-13.39
2022-12-18T22:56:32.463Z,-13.60
2022-12-18T22:59:49.991Z,-13.72
2022-12-18T23:03:10.419Z,-13.72
2022-12-18T23:06:29.087Z,-13.65
2022-12-18T23:09:45.849Z,-13.48
2022-12-18T23:13:04.257Z,-13.48
2022-12-18T23:16:25.288Z,-13.15
2022-12-18T23:19:47.117Z,-13.01
2022-12-18T23:23:00.022Z,-12.71
2022-12-18T23:26:20.096Z,-12.46
2022-12-18T23:29:36.216Z,-12.26
2022-12-18T23:32:53.335Z,-11.96
2022-12-18T23:36:13.398Z,-12.00
2022-12-18T23:39:30.483Z,-12.15
2022-12-18T23:42:50.187Z,-12.64
2022-12-18T23:46:07.485Z,-12.78
2022-12-18T23:49:24.093Z,-12.77
2022-12-18T23:52:40.556Z,-12.79
2022-12-18T23:55:56.682Z,-12.87
2022-12-18T23:59:15.410Z,-12.72
